Sapucaí Heliport

BR-0265 · Rio de Janeiro, Brazil

METAR history BR-0265 · Sapucaí Heliport

Below you see METARs of the last few days. Select a year to browse through older METARs, from the year 2007 onwards.

May 18, 2024

Time Code Weather Temp. Visibility Ceiling Wind METAR/SPECI
16:00
V
28 °C 10 km+ - 190° 190° 15 kt METAR SBRJ 181900Z 19015KT CAVOK 28/22 Q1014
15:00
V
29 °C 10 km+ - 190° 190° 16 kt METAR SBRJ 181800Z 19016KT CAVOK 29/22 Q1013
14:00
V
29 °C 10 km+ - 190° 190° 15 kt METAR SBRJ 181700Z 19015KT 9999 FEW025 29/22 Q1014
13:00
V
29 °C 10 km+ - 170° 170° 12 kt METAR SBRJ 181600Z 17012KT 9999 FEW025 29/22 Q1014
12:00
V
30 °C 10 km+ - 150° 150° 6 kt METAR SBRJ 181500Z 15006KT 120V190 9999 FEW023 30/23 Q1015
11:00
V
28 °C 10 km+ - 140° 140° 5 kt METAR SBRJ 181400Z 14005KT 9999 FEW020 28/23 Q1016
10:00
V
28 °C 9 km - 050° 050° 3 kt METAR SBRJ 181300Z 05003KT 360V100 9000 NSC 28/23 Q1017
09:00
V
26 °C 8 km - 010° 010° 5 kt METAR SBRJ 181200Z 01005KT 8000 NSC 26/23 Q1016
08:00
V
25 °C 10 km+ - 030° 030° 6 kt METAR SBRJ 181100Z 03006KT CAVOK 25/23 Q1016
07:00
V
24 °C 10 km+ - 020° 020° 7 kt METAR SBRJ 181000Z 02007KT CAVOK 24/23 Q1014
06:00
V
24 °C 10 km+ - 350° 350° 7 kt METAR SBRJ 180900Z 35007KT CAVOK 24/22 Q1013
05:00
V
25 °C 10 km+ - 330° 330° 6 kt METAR SBRJ 180800Z 33006KT CAVOK 25/22 Q1013
04:00
V
25 °C 10 km+ - 330° 330° 4 kt METAR SBRJ 180700Z 33004KT CAVOK 25/21 Q1012
03:00
V
25 °C 10 km+ - 330° 330° 7 kt METAR SBRJ 180600Z 33007KT CAVOK 25/22 Q1012
02:00
V
26 °C 10 km+ - 320° 320° 4 kt METAR SBRJ 180500Z 32004KT CAVOK 26/21 Q1013
01:00
V
27 °C 10 km+ - 320° 320° 5 kt METAR SBRJ 180400Z 32005KT CAVOK 27/21 Q1013
00:00
V
26 °C 10 km+ - 330° 330° 5 kt METAR SBRJ 180300Z 33005KT 290V350 CAVOK 26/22 Q1014

May 17, 2024

Time Code Weather Temp. Visibility Ceiling Wind METAR/SPECI
23:00
V
27 °C 10 km+ - 320° 320° 5 kt METAR SBRJ 180200Z 32005KT CAVOK 27/21 Q1014
22:00
V
28 °C 10 km+ - 320° 320° 4 kt METAR SBRJ 180100Z 32004KT CAVOK 28/22 Q1014
21:00
V
26 °C 10 km+ - 360° 360° 0 kt METAR SBRJ 180000Z 00000KT CAVOK 26/23 Q1014
20:00
V
28 °C 10 km+ - 180° 180° 4 kt METAR SBRJ 172300Z 18004KT 120V230 CAVOK 28/21 Q1014
19:00
V
27 °C 10 km+ - 170° 170° 5 kt METAR SBRJ 172200Z 17005KT CAVOK 27/22 Q1013
18:00
V
28 °C 10 km+ - 180° 180° 8 kt METAR SBRJ 172100Z 18008KT CAVOK 28/21 Q1013
17:00
V
29 °C 10 km+ - 160° 160° 8 kt METAR SBRJ 172000Z 16008KT 9999 FEW020 29/22 Q1012
16:00
V
30 °C 10 km+ - 170° 170° 5 kt METAR SBRJ 171900Z 17005KT 9999 FEW025 30/22 Q1012
15:00
V
31 °C 10 km+ - 350° 350° 5 kt METAR SBRJ 171800Z 35005KT 9999 FEW025 31/23 Q1012
14:00
V
32 °C 10 km+ - 350° 350° 5 kt METAR SBRJ 171700Z 35005KT 9999 FEW030 32/22 Q1012
13:00
V
31 °C 10 km+ - 020° 020° 9 kt METAR SBRJ 171600Z 02009KT 9999 FEW030 31/23 Q1013
12:00
V
28 °C 9 km - 010° 010° 9 kt METAR SBRJ 171500Z 01009KT 9000 NSC 28/23 Q1014
11:00
V
28 °C 8 km - 360° 360° 7 kt METAR SBRJ 171400Z 36007KT 8000 NSC 28/24 Q1015
10:00
V
26 °C 8 km - 340° 340° 8 kt METAR SBRJ 171300Z 34008KT 8000 NSC 26/24 Q1016
09:00
V
25 °C 8 km - 350° 350° 7 kt METAR SBRJ 171200Z 35007KT 8000 NSC 25/24 Q1015
08:00
V
24 °C 9 km - 340° 340° 7 kt METAR SBRJ 171100Z 34007KT 9000 FEW030 24/23 Q1015
07:00
V
23 °C 10 km+ - 360° 360° 5 kt METAR SBRJ 171000Z 36005KT CAVOK 23/23 Q1015
06:00
V
23 °C 10 km+ - 360° 360° 7 kt METAR SBRJ 170900Z 36007KT CAVOK 23/22 Q1014
05:00
V
23 °C 10 km+ - 340° 340° 5 kt METAR SBRJ 170800Z 34005KT CAVOK 23/22 Q1013
04:00
V
23 °C 10 km+ - 350° 350° 5 kt METAR SBRJ 170700Z 35005KT CAVOK 23/22 Q1013
03:00
V
23 °C 10 km+ - 340° 340° 4 kt METAR SBRJ 170600Z 34004KT CAVOK 23/22 Q1013
02:00
V
23 °C 10 km+ - 330° 330° 5 kt METAR SBRJ 170500Z 33005KT CAVOK 23/22 Q1014
01:00
V
24 °C 10 km+ - 330° 330° 5 kt METAR SBRJ 170400Z 33005KT CAVOK 24/22 Q1014
00:00
V
24 °C 10 km+ - 320° 320° 4 kt METAR SBRJ 170300Z 32004KT CAVOK 24/22 Q1014

May 16, 2024

Time Code Weather Temp. Visibility Ceiling Wind METAR/SPECI
23:00
V
24 °C 10 km+ - 310° 310° 3 kt METAR SBRJ 170200Z 31003KT CAVOK 24/23 Q1015
22:00
V
23 °C 10 km+ - 360° 360° 0 kt METAR SBRJ 170100Z 00000KT CAVOK 23/22 Q1015
21:00
V
23 °C 10 km+ - 360° 360° 0 kt METAR SBRJ 170000Z 00000KT CAVOK 23/22 Q1015
20:00
V
24 °C 10 km+ - 180° 180° 7 kt METAR SBRJ 162300Z 18007KT CAVOK 24/22 Q1014
19:00
V
24 °C 10 km+ - 190° 190° 9 kt METAR SBRJ 162200Z 19009KT 9999 FEW011 24/22 Q1014
18:00
V
24 °C 10 km+ - 190° 190° 9 kt METAR SBRJ 162100Z 19009KT 9999 FEW011 24/23 Q1013
17:00
V
24 °C 10 km+ - 170° 170° 11 kt METAR SBRJ 162000Z 17011KT 9999 FEW009 24/22 Q1013
16:00
V
25 °C 10 km+ - 180° 180° 11 kt METAR SBRJ 161900Z 18011KT 9999 FEW010 25/22 Q1013
15:00
V
26 °C 10 km+ - 170° 170° 8 kt METAR SBRJ 161800Z 17008KT 9999 FEW012 26/23 Q1013
14:00
V
25 °C 10 km+ - 150° 150° 6 kt METAR SBRJ 161700Z 15006KT 9999 FEW013 25/22 Q1014
13:00
V
25 °C 10 km+ - 150° 150° 6 kt METAR SBRJ 161600Z 15006KT 130V190 9999 FEW013 SCT100 25/22 Q1015
12:40
V
25 °C 10 km+ 10,000 ft 150° 150° 6 kt METAR SBRJ 161540Z 15006KT 9999 SCT017 BKN100 25/22 Q1015
12:00
V
25 °C 10 km+ 10,000 ft 010° 010° 3 kt METAR SBRJ 161500Z 01003KT 330V050 9999 SCT017 BKN100 25/21 Q1016
11:00
V
24 °C 10 km+ 10,000 ft 360° 360° 4 kt METAR SBRJ 161400Z 36004KT 320V020 9999 SCT020 BKN100 24/22 Q1017
10:00
V
24 °C 10 km+ 10,000 ft Var Var 2 kt METAR SBRJ 161300Z VRB02KT 9999 SCT015 BKN100 24/21 Q1018
09:00
V
24 °C 10 km+ 10,000 ft 140° 140° 3 kt METAR SBRJ 161200Z 14003KT 110V180 9999 SCT013 BKN100 24/21 Q1018
08:00
M
23 °C 10 km+ 1,300 ft Var Var 2 kt METAR SBRJ 161100Z VRB02KT 9999 BKN013 OVC040 23/21 Q1017
07:00
M
22 °C 10 km+ 3,000 ft 150° 150° 3 kt METAR SBRJ 161000Z 15003KT 9999 SCT017 OVC030 22/21 Q1017
06:00
M
22 °C 10 km+ 3,000 ft 170° 170° 2 kt METAR SBRJ 160900Z 17002KT 9999 SCT017 OVC030 22/20 Q1016
05:00
M
22 °C 10 km+ 2,300 ft 190° 190° 1 kt METAR SBRJ 160800Z 19001KT 9999 FEW012 OVC023 22/20 Q1016
04:00
M
22 °C 10 km+ 2,300 ft 180° 180° 1 kt METAR SBRJ 160700Z 18001KT 9999 FEW012 OVC023 22/20 Q1016
03:00
M
22 °C 10 km+ 2,300 ft 190° 190° 2 kt METAR SBRJ 160600Z 19002KT 9999 FEW012 OVC023 22/21 Q1016
Report a change